sensor_id;sensor_type;location;lat;lon;timestamp;P1;durP1;ratioP1;P2;durP2;ratioP2
72087;SDS011;59961;50.232;8.616;2023-05-07T00:02:00;2.53;;;1.73;;
72087;SDS011;59961;50.232;8.616;2023-05-07T00:04:26;2.87;;;1.57;;
72087;SDS011;59961;50.232;8.616;2023-05-07T00:06:52;3.05;;;1.55;;
72087;SDS011;59961;50.232;8.616;2023-05-07T00:09:17;3.93;;;1.80;;
72087;SDS011;59961;50.232;8.616;2023-05-07T00:11:42;2.70;;;1.30;;
72087;SDS011;59961;50.232;8.616;2023-05-07T00:14:07;2.37;;;1.60;;
72087;SDS011;59961;50.232;8.616;2023-05-07T00:16:32;3.27;;;1.53;;
72087;SDS011;59961;50.232;8.616;2023-05-07T00:18:57;2.57;;;1.50;;
72087;SDS011;59961;50.232;8.616;2023-05-07T00:21:22;2.60;;;1.30;;
72087;SDS011;59961;50.232;8.616;2023-05-07T00:23:51;2.30;;;1.40;;
72087;SDS011;59961;50.232;8.616;2023-05-07T00:26:16;3.27;;;1.63;;
72087;SDS011;59961;50.232;8.616;2023-05-07T00:28:41;2.97;;;1.70;;
72087;SDS011;59961;50.232;8.616;2023-05-07T00:31:06;2.57;;;1.23;;
72087;SDS011;59961;50.232;8.616;2023-05-07T00:33:32;2.53;;;1.70;;
72087;SDS011;59961;50.232;8.616;2023-05-07T00:35:57;3.13;;;1.80;;
72087;SDS011;59961;50.232;8.616;2023-05-07T00:38:22;2.88;;;1.58;;
72087;SDS011;59961;50.232;8.616;2023-05-07T00:40:47;2.23;;;1.23;;
72087;SDS011;59961;50.232;8.616;2023-05-07T00:43:12;3.03;;;1.90;;
72087;SDS011;59961;50.232;8.616;2023-05-07T00:45:37;3.10;;;1.70;;
72087;SDS011;59961;50.232;8.616;2023-05-07T00:48:04;4.30;;;1.80;;
72087;SDS011;59961;50.232;8.616;2023-05-07T00:50:29;2.77;;;1.43;;
72087;SDS011;59961;50.232;8.616;2023-05-07T00:52:55;2.83;;;1.40;;
72087;SDS011;59961;50.232;8.616;2023-05-07T00:55:22;2.35;;;1.60;;
72087;SDS011;59961;50.232;8.616;2023-05-07T00:57:48;2.80;;;1.87;;
72087;SDS011;59961;50.232;8.616;2023-05-07T01:00:14;3.10;;;1.58;;
72087;SDS011;59961;50.232;8.616;2023-05-07T01:02:39;2.60;;;1.43;;
72087;SDS011;59961;50.232;8.616;2023-05-07T01:05:05;2.63;;;1.50;;
72087;SDS011;59961;50.232;8.616;2023-05-07T01:07:31;1.95;;;1.45;;
72087;SDS011;59961;50.232;8.616;2023-05-07T01:09:56;2.17;;;1.08;;
72087;SDS011;59961;50.232;8.616;2023-05-07T01:12:22;2.77;;;1.57;;
72087;SDS011;59961;50.232;8.616;2023-05-07T01:14:47;3.77;;;1.70;;
72087;SDS011;59961;50.232;8.616;2023-05-07T01:17:14;3.13;;;1.58;;
72087;SDS011;59961;50.232;8.616;2023-05-07T01:19:39;2.03;;;1.20;;
72087;SDS011;59961;50.232;8.616;2023-05-07T01:22:07;3.87;;;1.70;;
72087;SDS011;59961;50.232;8.616;2023-05-07T01:24:33;4.00;;;1.40;;
72087;SDS011;59961;50.232;8.616;2023-05-07T01:26:58;3.87;;;1.73;;
72087;SDS011;59961;50.232;8.616;2023-05-07T01:29:23;3.43;;;1.50;;
72087;SDS011;59961;50.232;8.616;2023-05-07T01:31:49;4.13;;;1.90;;
72087;SDS011;59961;50.232;8.616;2023-05-07T01:34:15;2.83;;;1.48;;
72087;SDS011;59961;50.232;8.616;2023-05-07T01:36:42;2.28;;;1.42;;
72087;SDS011;59961;50.232;8.616;2023-05-07T01:39:07;2.40;;;1.50;;
72087;SDS011;59961;50.232;8.616;2023-05-07T01:41:33;3.17;;;1.80;;
72087;SDS011;59961;50.232;8.616;2023-05-07T01:43:59;2.30;;;1.50;;
72087;SDS011;59961;50.232;8.616;2023-05-07T01:46:24;2.90;;;1.70;;
72087;SDS011;59961;50.232;8.616;2023-05-07T01:48:51;6.53;;;1.53;;
72087;SDS011;59961;50.232;8.616;2023-05-07T01:51:16;3.38;;;1.42;;
72087;SDS011;59961;50.232;8.616;2023-05-07T01:53:41;2.20;;;1.60;;
72087;SDS011;59961;50.232;8.616;2023-05-07T01:56:08;4.15;;;1.80;;
72087;SDS011;59961;50.232;8.616;2023-05-07T01:58:33;3.43;;;1.77;;
72087;SDS011;59961;50.232;8.616;2023-05-07T02:00:58;3.55;;;1.90;;
72087;SDS011;59961;50.232;8.616;2023-05-07T02:03:23;5.43;;;1.83;;
72087;SDS011;59961;50.232;8.616;2023-05-07T02:05:49;3.97;;;1.60;;
72087;SDS011;59961;50.232;8.616;2023-05-07T02:08:14;3.65;;;1.65;;
72087;SDS011;59961;50.232;8.616;2023-05-07T02:10:39;2.50;;;1.63;;
72087;SDS011;59961;50.232;8.616;2023-05-07T02:13:04;2.40;;;1.30;;
72087;SDS011;59961;50.232;8.616;2023-05-07T02:15:30;2.63;;;1.40;;
72087;SDS011;59961;50.232;8.616;2023-05-07T02:18:05;3.47;;;1.70;;
72087;SDS011;59961;50.232;8.616;2023-05-07T02:20:31;2.65;;;1.80;;
72087;SDS011;59961;50.232;8.616;2023-05-07T02:22:56;5.03;;;1.60;;
72087;SDS011;59961;50.232;8.616;2023-05-07T02:25:21;2.60;;;1.37;;
72087;SDS011;59961;50.232;8.616;2023-05-07T02:27:46;2.97;;;1.80;;
72087;SDS011;59961;50.232;8.616;2023-05-07T02:30:11;3.05;;;2.00;;
72087;SDS011;59961;50.232;8.616;2023-05-07T02:32:37;2.97;;;1.97;;
72087;SDS011;59961;50.232;8.616;2023-05-07T02:35:02;3.60;;;2.03;;
72087;SDS011;59961;50.232;8.616;2023-05-07T02:37:27;2.57;;;1.70;;
72087;SDS011;59961;50.232;8.616;2023-05-07T02:39:52;4.43;;;1.80;;
72087;SDS011;59961;50.232;8.616;2023-05-07T02:42:17;4.67;;;1.87;;
72087;SDS011;59961;50.232;8.616;2023-05-07T02:44:42;2.33;;;1.90;;
72087;SDS011;59961;50.232;8.616;2023-05-07T02:47:08;3.35;;;1.90;;
72087;SDS011;59961;50.232;8.616;2023-05-07T02:49:34;3.67;;;1.97;;
72087;SDS011;59961;50.232;8.616;2023-05-07T02:51:59;3.20;;;1.60;;
72087;SDS011;59961;50.232;8.616;2023-05-07T02:54:24;2.67;;;1.90;;
72087;SDS011;59961;50.232;8.616;2023-05-07T02:56:49;4.20;;;1.80;;
72087;SDS011;59961;50.232;8.616;2023-05-07T02:59:15;5.07;;;1.90;;
72087;SDS011;59961;50.232;8.616;2023-05-07T03:01:40;2.85;;;1.65;;
72087;SDS011;59961;50.232;8.616;2023-05-07T03:06:31;4.05;;;2.20;;
72087;SDS011;59961;50.232;8.616;2023-05-07T03:08:56;3.33;;;1.70;;
72087;SDS011;59961;50.232;8.616;2023-05-07T03:11:21;2.08;;;1.52;;
72087;SDS011;59961;50.232;8.616;2023-05-07T03:13:47;3.72;;;1.77;;
72087;SDS011;59961;50.232;8.616;2023-05-07T03:16:13;5.10;;;1.70;;
72087;SDS011;59961;50.232;8.616;2023-05-07T03:18:39;3.57;;;1.97;;
72087;SDS011;59961;50.232;8.616;2023-05-07T03:21:04;2.87;;;1.80;;
72087;SDS011;59961;50.232;8.616;2023-05-07T03:23:29;3.03;;;1.60;;
72087;SDS011;59961;50.232;8.616;2023-05-07T03:25:54;3.75;;;1.70;;
72087;SDS011;59961;50.232;8.616;2023-05-07T03:28:19;3.00;;;1.70;;
72087;SDS011;59961;50.232;8.616;2023-05-07T03:30:44;2.70;;;1.48;;
72087;SDS011;59961;50.232;8.616;2023-05-07T03:33:10;1.98;;;1.33;;
72087;SDS011;59961;50.232;8.616;2023-05-07T03:35:35;2.23;;;1.60;;
72087;SDS011;59961;50.232;8.616;2023-05-07T03:38:00;4.70;;;1.40;;
72087;SDS011;59961;50.232;8.616;2023-05-07T03:40:25;2.67;;;1.67;;
72087;SDS011;59961;50.232;8.616;2023-05-07T03:42:51;2.38;;;1.40;;
72087;SDS011;59961;50.232;8.616;2023-05-07T03:45:16;2.88;;;1.73;;
72087;SDS011;59961;50.232;8.616;2023-05-07T03:47:41;3.43;;;1.63;;
72087;SDS011;59961;50.232;8.616;2023-05-07T03:50:06;3.43;;;1.90;;
72087;SDS011;59961;50.232;8.616;2023-05-07T03:52:31;3.17;;;2.00;;
72087;SDS011;59961;50.232;8.616;2023-05-07T03:54:56;3.10;;;1.70;;
72087;SDS011;59961;50.232;8.616;2023-05-07T03:57:22;4.07;;;2.25;;
72087;SDS011;59961;50.232;8.616;2023-05-07T03:59:47;4.00;;;2.03;;
72087;SDS011;59961;50.232;8.616;2023-05-07T04:02:12;5.87;;;1.73;;
72087;SDS011;59961;50.232;8.616;2023-05-07T04:04:37;3.50;;;1.90;;
72087;SDS011;59961;50.232;8.616;2023-05-07T04:07:02;4.13;;;1.92;;
72087;SDS011;59961;50.232;8.616;2023-05-07T04:09:28;2.80;;;1.70;;
72087;SDS011;59961;50.232;8.616;2023-05-07T04:11:53;6.40;;;2.40;;
72087;SDS011;59961;50.232;8.616;2023-05-07T04:14:18;3.20;;;1.70;;
72087;SDS011;59961;50.232;8.616;2023-05-07T04:16:43;3.60;;;2.10;;
72087;SDS011;59961;50.232;8.616;2023-05-07T04:19:09;4.13;;;1.90;;
72087;SDS011;59961;50.232;8.616;2023-05-07T04:21:34;5.05;;;1.92;;
72087;SDS011;59961;50.232;8.616;2023-05-07T04:23:59;3.03;;;1.70;;
72087;SDS011;59961;50.232;8.616;2023-05-07T04:26:24;2.93;;;1.70;;
72087;SDS011;59961;50.232;8.616;2023-05-07T04:28:50;3.03;;;1.92;;
72087;SDS011;59961;50.232;8.616;2023-05-07T04:31:16;3.00;;;1.70;;
72087;SDS011;59961;50.232;8.616;2023-05-07T04:33:41;3.03;;;1.80;;
72087;SDS011;59961;50.232;8.616;2023-05-07T04:36:06;3.63;;;1.60;;
72087;SDS011;59961;50.232;8.616;2023-05-07T04:38:31;3.13;;;1.70;;
72087;SDS011;59961;50.232;8.616;2023-05-07T04:40:58;2.65;;;1.75;;
72087;SDS011;59961;50.232;8.616;2023-05-07T04:43:23;3.47;;;1.70;;
72087;SDS011;59961;50.232;8.616;2023-05-07T04:45:50;3.47;;;1.50;;
72087;SDS011;59961;50.232;8.616;2023-05-07T04:48:15;3.45;;;1.65;;
72087;SDS011;59961;50.232;8.616;2023-05-07T04:50:41;2.72;;;1.73;;
72087;SDS011;59961;50.232;8.616;2023-05-07T04:53:06;4.03;;;1.60;;
72087;SDS011;59961;50.232;8.616;2023-05-07T04:55:31;5.40;;;1.83;;
72087;SDS011;59961;50.232;8.616;2023-05-07T04:57:56;2.90;;;1.70;;
72087;SDS011;59961;50.232;8.616;2023-05-07T05:00:21;3.60;;;2.05;;
72087;SDS011;59961;50.232;8.616;2023-05-07T05:02:47;4.33;;;2.03;;
72087;SDS011;59961;50.232;8.616;2023-05-07T05:05:13;3.80;;;2.17;;
72087;SDS011;59961;50.232;8.616;2023-05-07T05:07:38;3.80;;;1.80;;
72087;SDS011;59961;50.232;8.616;2023-05-07T05:10:04;4.77;;;1.80;;
72087;SDS011;59961;50.232;8.616;2023-05-07T05:12:30;2.83;;;1.83;;
72087;SDS011;59961;50.232;8.616;2023-05-07T05:14:55;3.53;;;1.87;;
72087;SDS011;59961;50.232;8.616;2023-05-07T05:17:21;3.00;;;1.70;;
72087;SDS011;59961;50.232;8.616;2023-05-07T05:19:46;3.87;;;2.03;;
72087;SDS011;59961;50.232;8.616;2023-05-07T05:22:11;2.60;;;1.60;;
72087;SDS011;59961;50.232;8.616;2023-05-07T05:24:36;4.40;;;1.80;;
72087;SDS011;59961;50.232;8.616;2023-05-07T05:27:01;5.57;;;1.75;;
72087;SDS011;59961;50.232;8.616;2023-05-07T05:29:27;3.97;;;1.93;;
72087;SDS011;59961;50.232;8.616;2023-05-07T05:31:52;2.65;;;1.70;;
72087;SDS011;59961;50.232;8.616;2023-05-07T05:34:17;3.77;;;2.20;;
72087;SDS011;59961;50.232;8.616;2023-05-07T05:36:44;3.43;;;2.40;;
72087;SDS011;59961;50.232;8.616;2023-05-07T05:39:09;3.00;;;2.00;;
72087;SDS011;59961;50.232;8.616;2023-05-07T05:41:34;4.40;;;1.85;;
72087;SDS011;59961;50.232;8.616;2023-05-07T05:43:59;4.43;;;2.10;;
72087;SDS011;59961;50.232;8.616;2023-05-07T05:46:25;4.37;;;2.20;;
72087;SDS011;59961;50.232;8.616;2023-05-07T05:48:50;3.92;;;1.95;;
72087;SDS011;59961;50.232;8.616;2023-05-07T05:51:15;3.93;;;1.80;;
72087;SDS011;59961;50.232;8.616;2023-05-07T05:53:40;3.40;;;2.10;;
72087;SDS011;59961;50.232;8.616;2023-05-07T05:56:05;3.20;;;1.92;;
72087;SDS011;59961;50.232;8.616;2023-05-07T05:58:31;3.63;;;1.87;;
72087;SDS011;59961;50.232;8.616;2023-05-07T06:00:56;3.23;;;2.00;;
72087;SDS011;59961;50.232;8.616;2023-05-07T06:03:21;3.80;;;1.90;;
72087;SDS011;59961;50.232;8.616;2023-05-07T06:05:46;3.20;;;2.20;;
72087;SDS011;59961;50.232;8.616;2023-05-07T06:08:11;3.92;;;2.03;;
72087;SDS011;59961;50.232;8.616;2023-05-07T06:10:37;5.07;;;1.93;;
72087;SDS011;59961;50.232;8.616;2023-05-07T06:13:02;4.60;;;2.43;;
72087;SDS011;59961;50.232;8.616;2023-05-07T06:15:27;4.40;;;2.10;;
72087;SDS011;59961;50.232;8.616;2023-05-07T06:17:52;3.93;;;2.03;;
72087;SDS011;59961;50.232;8.616;2023-05-07T06:20:18;2.95;;;2.00;;
72087;SDS011;59961;50.232;8.616;2023-05-07T06:22:43;3.87;;;2.70;;
72087;SDS011;59961;50.232;8.616;2023-05-07T06:25:08;5.17;;;2.30;;
72087;SDS011;59961;50.232;8.616;2023-05-07T06:27:33;3.53;;;2.20;;
72087;SDS011;59961;50.232;8.616;2023-05-07T06:29:58;3.00;;;2.17;;
72087;SDS011;59961;50.232;8.616;2023-05-07T06:32:23;3.75;;;2.10;;
72087;SDS011;59961;50.232;8.616;2023-05-07T06:34:49;6.47;;;2.57;;
72087;SDS011;59961;50.232;8.616;2023-05-07T06:37:14;4.57;;;2.70;;
72087;SDS011;59961;50.232;8.616;2023-05-07T06:39:39;4.40;;;2.20;;
72087;SDS011;59961;50.232;8.616;2023-05-07T06:42:04;4.45;;;2.30;;
72087;SDS011;59961;50.232;8.616;2023-05-07T06:44:30;3.97;;;2.57;;
72087;SDS011;59961;50.232;8.616;2023-05-07T06:46:55;4.33;;;2.70;;
72087;SDS011;59961;50.232;8.616;2023-05-07T06:49:20;5.00;;;2.43;;
72087;SDS011;59961;50.232;8.616;2023-05-07T06:51:45;4.68;;;2.30;;
72087;SDS011;59961;50.232;8.616;2023-05-07T06:54:10;5.75;;;2.55;;
72087;SDS011;59961;50.232;8.616;2023-05-07T06:56:35;8.07;;;2.90;;
72087;SDS011;59961;50.232;8.616;2023-05-07T06:59:01;4.63;;;2.87;;
72087;SDS011;59961;50.232;8.616;2023-05-07T07:01:27;4.13;;;2.43;;
72087;SDS011;59961;50.232;8.616;2023-05-07T07:03:53;3.93;;;2.30;;
72087;SDS011;59961;50.232;8.616;2023-05-07T07:06:18;4.93;;;2.57;;
72087;SDS011;59961;50.232;8.616;2023-05-07T07:08:43;3.95;;;2.25;;
72087;SDS011;59961;50.232;8.616;2023-05-07T07:11:10;6.03;;;5.30;;
72087;SDS011;59961;50.232;8.616;2023-05-07T07:13:35;5.30;;;4.00;;
72087;SDS011;59961;50.232;8.616;2023-05-07T07:16:01;4.97;;;2.70;;
72087;SDS011;59961;50.232;8.616;2023-05-07T07:18:26;4.90;;;2.57;;
72087;SDS011;59961;50.232;8.616;2023-05-07T07:20:51;5.57;;;3.03;;
72087;SDS011;59961;50.232;8.616;2023-05-07T07:23:16;4.85;;;2.70;;
72087;SDS011;59961;50.232;8.616;2023-05-07T07:25:42;4.30;;;2.50;;
72087;SDS011;59961;50.232;8.616;2023-05-07T07:28:07;4.33;;;2.03;;
72087;SDS011;59961;50.232;8.616;2023-05-07T07:30:32;3.93;;;2.57;;
72087;SDS011;59961;50.232;8.616;2023-05-07T07:32:57;4.17;;;2.70;;
72087;SDS011;59961;50.232;8.616;2023-05-07T07:35:27;5.63;;;2.97;;
72087;SDS011;59961;50.232;8.616;2023-05-07T07:37:52;5.72;;;2.88;;
72087;SDS011;59961;50.232;8.616;2023-05-07T07:40:17;4.80;;;2.80;;
72087;SDS011;59961;50.232;8.616;2023-05-07T07:42:43;4.87;;;2.70;;
72087;SDS011;59961;50.232;8.616;2023-05-07T07:45:08;4.43;;;2.60;;
72087;SDS011;59961;50.232;8.616;2023-05-07T07:47:33;4.87;;;2.90;;
72087;SDS011;59961;50.232;8.616;2023-05-07T07:49:58;6.00;;;3.00;;
72087;SDS011;59961;50.232;8.616;2023-05-07T07:52:24;3.87;;;2.90;;
72087;SDS011;59961;50.232;8.616;2023-05-07T07:54:49;4.80;;;2.90;;
72087;SDS011;59961;50.232;8.616;2023-05-07T07:57:14;6.38;;;4.28;;
72087;SDS011;59961;50.232;8.616;2023-05-07T07:59:42;5.00;;;3.20;;
72087;SDS011;59961;50.232;8.616;2023-05-07T08:02:08;6.07;;;3.25;;
72087;SDS011;59961;50.232;8.616;2023-05-07T08:04:33;4.83;;;3.00;;
72087;SDS011;59961;50.232;8.616;2023-05-07T08:06:58;5.83;;;3.50;;
72087;SDS011;59961;50.232;8.616;2023-05-07T08:09:23;5.17;;;3.13;;
72087;SDS011;59961;50.232;8.616;2023-05-07T08:11:48;4.67;;;2.87;;
72087;SDS011;59961;50.232;8.616;2023-05-07T08:14:14;4.90;;;2.80;;
72087;SDS011;59961;50.232;8.616;2023-05-07T08:16:40;5.10;;;3.05;;
72087;SDS011;59961;50.232;8.616;2023-05-07T08:19:05;4.67;;;3.13;;
72087;SDS011;59961;50.232;8.616;2023-05-07T08:21:30;4.90;;;3.03;;
72087;SDS011;59961;50.232;8.616;2023-05-07T08:23:56;4.78;;;2.97;;
72087;SDS011;59961;50.232;8.616;2023-05-07T08:26:21;8.25;;;3.10;;
72087;SDS011;59961;50.232;8.616;2023-05-07T08:28:46;7.73;;;3.77;;
72087;SDS011;59961;50.232;8.616;2023-05-07T08:31:12;5.88;;;3.50;;
72087;SDS011;59961;50.232;8.616;2023-05-07T08:33:37;4.77;;;3.50;;
72087;SDS011;59961;50.232;8.616;2023-05-07T08:36:03;6.63;;;3.70;;
72087;SDS011;59961;50.232;8.616;2023-05-07T08:38:28;5.60;;;4.30;;
72087;SDS011;59961;50.232;8.616;2023-05-07T08:40:53;5.17;;;3.67;;
72087;SDS011;59961;50.232;8.616;2023-05-07T08:43:19;6.10;;;4.07;;
72087;SDS011;59961;50.232;8.616;2023-05-07T08:45:45;7.60;;;3.50;;
72087;SDS011;59961;50.232;8.616;2023-05-07T08:48:16;6.13;;;3.60;;
72087;SDS011;59961;50.232;8.616;2023-05-07T08:50:42;6.35;;;3.95;;
72087;SDS011;59961;50.232;8.616;2023-05-07T08:53:07;7.83;;;4.40;;
72087;SDS011;59961;50.232;8.616;2023-05-07T08:55:32;6.87;;;4.23;;
72087;SDS011;59961;50.232;8.616;2023-05-07T08:57:58;5.67;;;3.63;;
72087;SDS011;59961;50.232;8.616;2023-05-07T09:00:23;5.37;;;3.87;;
72087;SDS011;59961;50.232;8.616;2023-05-07T09:02:48;7.10;;;4.33;;
72087;SDS011;59961;50.232;8.616;2023-05-07T09:05:13;5.78;;;3.90;;
72087;SDS011;59961;50.232;8.616;2023-05-07T09:07:39;5.43;;;3.40;;
72087;SDS011;59961;50.232;8.616;2023-05-07T09:10:04;6.32;;;3.40;;
72087;SDS011;59961;50.232;8.616;2023-05-07T09:12:30;5.60;;;3.60;;
72087;SDS011;59961;50.232;8.616;2023-05-07T09:14:55;5.10;;;3.30;;
72087;SDS011;59961;50.232;8.616;2023-05-07T09:17:20;5.72;;;3.67;;
72087;SDS011;59961;50.232;8.616;2023-05-07T09:19:46;7.60;;;4.20;;
72087;SDS011;59961;50.232;8.616;2023-05-07T09:22:11;6.87;;;4.03;;
72087;SDS011;59961;50.232;8.616;2023-05-07T09:24:37;6.27;;;3.40;;
72087;SDS011;59961;50.232;8.616;2023-05-07T09:27:06;6.20;;;3.80;;
72087;SDS011;59961;50.232;8.616;2023-05-07T09:29:31;6.40;;;3.50;;
72087;SDS011;59961;50.232;8.616;2023-05-07T09:32:03;6.43;;;3.43;;
72087;SDS011;59961;50.232;8.616;2023-05-07T09:34:29;5.38;;;3.05;;
72087;SDS011;59961;50.232;8.616;2023-05-07T09:36:54;4.70;;;3.22;;
72087;SDS011;59961;50.232;8.616;2023-05-07T09:39:19;5.07;;;3.50;;
72087;SDS011;59961;50.232;8.616;2023-05-07T09:41:47;4.70;;;3.57;;
72087;SDS011;59961;50.232;8.616;2023-05-07T09:44:14;5.25;;;3.42;;
72087;SDS011;59961;50.232;8.616;2023-05-07T09:46:41;5.23;;;3.33;;
72087;SDS011;59961;50.232;8.616;2023-05-07T09:49:07;5.18;;;3.38;;
72087;SDS011;59961;50.232;8.616;2023-05-07T09:51:43;5.90;;;3.20;;
72087;SDS011;59961;50.232;8.616;2023-05-07T09:54:10;6.20;;;3.47;;
72087;SDS011;59961;50.232;8.616;2023-05-07T09:56:35;7.13;;;3.77;;
72087;SDS011;59961;50.232;8.616;2023-05-07T09:59:02;6.75;;;3.80;;
72087;SDS011;59961;50.232;8.616;2023-05-07T10:01:30;5.37;;;3.40;;
72087;SDS011;59961;50.232;8.616;2023-05-07T10:03:55;5.30;;;3.42;;
72087;SDS011;59961;50.232;8.616;2023-05-07T10:06:23;5.00;;;3.20;;
72087;SDS011;59961;50.232;8.616;2023-05-07T10:08:49;7.28;;;3.70;;
72087;SDS011;59961;50.232;8.616;2023-05-07T10:11:15;5.27;;;3.00;;
72087;SDS011;59961;50.232;8.616;2023-05-07T10:13:41;5.25;;;3.25;;
72087;SDS011;59961;50.232;8.616;2023-05-07T10:16:07;5.23;;;3.33;;
72087;SDS011;59961;50.232;8.616;2023-05-07T10:18:32;5.00;;;3.50;;
72087;SDS011;59961;50.232;8.616;2023-05-07T10:21:11;5.43;;;3.00;;
72087;SDS011;59961;50.232;8.616;2023-05-07T10:23:38;5.35;;;3.60;;
72087;SDS011;59961;50.232;8.616;2023-05-07T10:26:04;7.50;;;3.40;;
72087;SDS011;59961;50.232;8.616;2023-05-07T10:28:30;5.85;;;3.83;;
72087;SDS011;59961;50.232;8.616;2023-05-07T10:33:41;5.50;;;3.33;;
72087;SDS011;59961;50.232;8.616;2023-05-07T10:36:07;6.53;;;3.75;;
72087;SDS011;59961;50.232;8.616;2023-05-07T10:38:32;5.57;;;2.90;;
72087;SDS011;59961;50.232;8.616;2023-05-07T10:40:58;5.28;;;3.40;;
72087;SDS011;59961;50.232;8.616;2023-05-07T10:43:23;5.17;;;3.23;;
72087;SDS011;59961;50.232;8.616;2023-05-07T10:48:32;6.65;;;3.65;;
72087;SDS011;59961;50.232;8.616;2023-05-07T10:51:40;4.23;;;3.00;;
72087;SDS011;59961;50.232;8.616;2023-05-07T10:53:46;5.47;;;3.20;;
72087;SDS011;59961;50.232;8.616;2023-05-07T10:58:42;4.65;;;3.17;;
72087;SDS011;59961;50.232;8.616;2023-05-07T11:01:08;4.43;;;3.15;;
72087;SDS011;59961;50.232;8.616;2023-05-07T11:03:36;7.43;;;3.63;;
72087;SDS011;59961;50.232;8.616;2023-05-07T11:06:21;4.85;;;3.22;;
72087;SDS011;59961;50.232;8.616;2023-05-07T11:08:53;6.07;;;3.10;;
72087;SDS011;59961;50.232;8.616;2023-05-07T11:11:18;6.47;;;3.00;;
72087;SDS011;59961;50.232;8.616;2023-05-07T11:13:45;5.10;;;3.45;;
72087;SDS011;59961;50.232;8.616;2023-05-07T11:16:17;6.82;;;3.15;;
72087;SDS011;59961;50.232;8.616;2023-05-07T11:19:16;6.22;;;3.28;;
72087;SDS011;59961;50.232;8.616;2023-05-07T11:21:35;6.77;;;3.20;;
72087;SDS011;59961;50.232;8.616;2023-05-07T11:24:01;5.63;;;3.08;;
72087;SDS011;59961;50.232;8.616;2023-05-07T11:26:27;5.82;;;3.20;;
72087;SDS011;59961;50.232;8.616;2023-05-07T11:28:52;5.70;;;3.40;;
72087;SDS011;59961;50.232;8.616;2023-05-07T11:31:22;5.03;;;3.20;;
72087;SDS011;59961;50.232;8.616;2023-05-07T11:33:48;5.10;;;2.83;;
72087;SDS011;59961;50.232;8.616;2023-05-07T11:36:13;3.63;;;2.43;;
72087;SDS011;59961;50.232;8.616;2023-05-07T11:38:39;4.77;;;3.17;;
72087;SDS011;59961;50.232;8.616;2023-05-07T11:41:04;5.17;;;2.50;;
72087;SDS011;59961;50.232;8.616;2023-05-07T11:43:31;4.20;;;2.78;;
72087;SDS011;59961;50.232;8.616;2023-05-07T11:46:10;4.93;;;3.00;;
72087;SDS011;59961;50.232;8.616;2023-05-07T11:48:35;4.45;;;2.80;;
72087;SDS011;59961;50.232;8.616;2023-05-07T11:51:00;4.20;;;2.73;;
72087;SDS011;59961;50.232;8.616;2023-05-07T11:53:26;7.23;;;2.93;;
72087;SDS011;59961;50.232;8.616;2023-05-07T11:55:52;3.45;;;2.40;;
72087;SDS011;59961;50.232;8.616;2023-05-07T11:58:20;5.00;;;3.00;;
72087;SDS011;59961;50.232;8.616;2023-05-07T12:00:52;4.30;;;2.50;;
72087;SDS011;59961;50.232;8.616;2023-05-07T12:03:18;4.68;;;2.67;;
72087;SDS011;59961;50.232;8.616;2023-05-07T12:05:43;3.87;;;2.30;;
72087;SDS011;59961;50.232;8.616;2023-05-07T12:08:12;3.67;;;2.30;;
72087;SDS011;59961;50.232;8.616;2023-05-07T12:10:40;5.13;;;3.00;;
72087;SDS011;59961;50.232;8.616;2023-05-07T12:13:13;4.23;;;2.63;;
72087;SDS011;59961;50.232;8.616;2023-05-07T12:15:38;4.90;;;2.67;;
72087;SDS011;59961;50.232;8.616;2023-05-07T12:18:03;4.68;;;2.60;;
72087;SDS011;59961;50.232;8.616;2023-05-07T12:20:29;4.40;;;2.55;;
72087;SDS011;59961;50.232;8.616;2023-05-07T12:22:55;4.27;;;2.47;;
72087;SDS011;59961;50.232;8.616;2023-05-07T12:25:20;3.30;;;2.30;;
72087;SDS011;59961;50.232;8.616;2023-05-07T12:27:45;3.60;;;2.47;;
72087;SDS011;59961;50.232;8.616;2023-05-07T12:30:16;4.57;;;3.20;;
72087;SDS011;59961;50.232;8.616;2023-05-07T12:32:42;4.05;;;3.03;;
72087;SDS011;59961;50.232;8.616;2023-05-07T12:35:09;4.37;;;3.10;;
72087;SDS011;59961;50.232;8.616;2023-05-07T12:37:35;4.87;;;2.87;;
72087;SDS011;59961;50.232;8.616;2023-05-07T12:40:03;4.38;;;2.80;;
72087;SDS011;59961;50.232;8.616;2023-05-07T12:42:32;6.88;;;3.45;;
72087;SDS011;59961;50.232;8.616;2023-05-07T12:44:57;5.87;;;3.63;;
72087;SDS011;59961;50.232;8.616;2023-05-07T12:47:23;7.23;;;3.47;;
72087;SDS011;59961;50.232;8.616;2023-05-07T12:49:48;4.95;;;3.30;;
72087;SDS011;59961;50.232;8.616;2023-05-07T12:52:13;4.60;;;3.23;;
72087;SDS011;59961;50.232;8.616;2023-05-07T12:54:38;5.15;;;3.05;;
72087;SDS011;59961;50.232;8.616;2023-05-07T12:57:07;4.95;;;3.38;;
72087;SDS011;59961;50.232;8.616;2023-05-07T12:59:40;4.60;;;3.03;;
72087;SDS011;59961;50.232;8.616;2023-05-07T13:02:06;4.00;;;2.80;;
72087;SDS011;59961;50.232;8.616;2023-05-07T13:04:31;4.30;;;2.40;;
72087;SDS011;59961;50.232;8.616;2023-05-07T13:06:57;4.03;;;2.78;;
72087;SDS011;59961;50.232;8.616;2023-05-07T13:09:22;4.03;;;2.60;;
72087;SDS011;59961;50.232;8.616;2023-05-07T13:11:47;7.28;;;2.83;;
72087;SDS011;59961;50.232;8.616;2023-05-07T13:14:12;4.07;;;2.43;;
72087;SDS011;59961;50.232;8.616;2023-05-07T13:16:38;4.57;;;2.90;;
72087;SDS011;59961;50.232;8.616;2023-05-07T13:19:03;3.87;;;2.40;;
72087;SDS011;59961;50.232;8.616;2023-05-07T13:21:29;5.23;;;3.10;;
72087;SDS011;59961;50.232;8.616;2023-05-07T13:23:55;4.35;;;2.95;;
72087;SDS011;59961;50.232;8.616;2023-05-07T13:26:20;4.87;;;2.80;;
72087;SDS011;59961;50.232;8.616;2023-05-07T13:28:46;4.13;;;2.92;;
72087;SDS011;59961;50.232;8.616;2023-05-07T13:31:11;3.70;;;2.40;;
72087;SDS011;59961;50.232;8.616;2023-05-07T13:33:37;4.57;;;2.78;;
72087;SDS011;59961;50.232;8.616;2023-05-07T13:36:02;4.72;;;3.38;;
72087;SDS011;59961;50.232;8.616;2023-05-07T13:38:29;4.60;;;2.60;;
72087;SDS011;59961;50.232;8.616;2023-05-07T13:40:55;4.80;;;2.70;;
72087;SDS011;59961;50.232;8.616;2023-05-07T13:43:20;5.27;;;2.37;;
72087;SDS011;59961;50.232;8.616;2023-05-07T13:45:45;8.60;;;2.23;;
72087;SDS011;59961;50.232;8.616;2023-05-07T13:48:10;3.90;;;2.57;;
72087;SDS011;59961;50.232;8.616;2023-05-07T13:50:35;7.03;;;2.78;;
72087;SDS011;59961;50.232;8.616;2023-05-07T13:53:00;4.37;;;2.23;;
72087;SDS011;59961;50.232;8.616;2023-05-07T13:55:27;3.65;;;2.60;;
72087;SDS011;59961;50.232;8.616;2023-05-07T13:57:56;4.97;;;2.57;;
72087;SDS011;59961;50.232;8.616;2023-05-07T14:00:22;5.03;;;2.65;;
72087;SDS011;59961;50.232;8.616;2023-05-07T14:02:48;4.07;;;2.40;;
72087;SDS011;59961;50.232;8.616;2023-05-07T14:05:13;4.53;;;2.87;;
72087;SDS011;59961;50.232;8.616;2023-05-07T14:07:38;3.93;;;2.43;;
72087;SDS011;59961;50.232;8.616;2023-05-07T14:10:03;4.00;;;3.03;;
72087;SDS011;59961;50.232;8.616;2023-05-07T14:12:29;4.30;;;2.53;;
72087;SDS011;59961;50.232;8.616;2023-05-07T14:14:54;6.25;;;2.92;;
72087;SDS011;59961;50.232;8.616;2023-05-07T14:17:19;4.90;;;2.90;;
72087;SDS011;59961;50.232;8.616;2023-05-07T14:19:45;4.20;;;2.50;;
72087;SDS011;59961;50.232;8.616;2023-05-07T14:22:10;4.22;;;2.63;;
72087;SDS011;59961;50.232;8.616;2023-05-07T14:24:35;4.03;;;2.83;;
72087;SDS011;59961;50.232;8.616;2023-05-07T14:27:00;5.60;;;2.63;;
72087;SDS011;59961;50.232;8.616;2023-05-07T14:29:25;4.18;;;2.58;;
72087;SDS011;59961;50.232;8.616;2023-05-07T14:31:51;4.65;;;2.45;;
72087;SDS011;59961;50.232;8.616;2023-05-07T14:34:16;4.40;;;2.60;;
72087;SDS011;59961;50.232;8.616;2023-05-07T14:36:41;3.10;;;2.38;;
72087;SDS011;59961;50.232;8.616;2023-05-07T14:39:06;3.60;;;2.30;;
72087;SDS011;59961;50.232;8.616;2023-05-07T14:41:31;4.00;;;2.50;;
72087;SDS011;59961;50.232;8.616;2023-05-07T14:43:58;4.47;;;2.63;;
72087;SDS011;59961;50.232;8.616;2023-05-07T14:46:23;4.03;;;2.60;;
72087;SDS011;59961;50.232;8.616;2023-05-07T14:48:49;4.32;;;2.70;;
72087;SDS011;59961;50.232;8.616;2023-05-07T14:51:15;4.70;;;2.30;;